sensor_id;sensor_type;location;lat;lon;timestamp;temperature;humidity
63277;DHT22;49403;51.046;13.780;2022-08-19T00:00:10;26.20;64.70
63277;DHT22;49403;51.046;13.780;2022-08-19T00:00:41;26.20;64.60
63277;DHT22;49403;51.046;13.780;2022-08-19T00:01:12;26.10;64.70
63277;DHT22;49403;51.046;13.780;2022-08-19T00:01:46;26.60;65.90
63277;DHT22;49403;51.046;13.780;2022-08-19T00:02:17;26.30;64.60
63277;DHT22;49403;51.046;13.780;2022-08-19T00:02:48;26.30;64.70
63277;DHT22;49403;51.046;13.780;2022-08-19T00:03:19;26.20;64.70
63277;DHT22;49403;51.046;13.780;2022-08-19T00:03:50;26.20;64.70
63277;DHT22;49403;51.046;13.780;2022-08-19T00:04:25;27.00;65.30
63277;DHT22;49403;51.046;13.780;2022-08-19T00:04:56;27.40;65.30
63277;DHT22;49403;51.046;13.780;2022-08-19T00:05:27;26.20;64.70
63277;DHT22;49403;51.046;13.780;2022-08-19T00:05:58;26.20;64.70
63277;DHT22;49403;51.046;13.780;2022-08-19T00:06:30;27.30;65.50
63277;DHT22;49403;51.046;13.780;2022-08-19T00:07:01;26.30;64.40
63277;DHT22;49403;51.046;13.780;2022-08-19T00:07:33;26.30;64.40
63277;DHT22;49403;51.046;13.780;2022-08-19T00:08:04;27.40;65.30
63277;DHT22;49403;51.046;13.780;2022-08-19T00:08:35;26.30;64.60
63277;DHT22;49403;51.046;13.780;2022-08-19T00:09:09;26.80;65.00
63277;DHT22;49403;51.046;13.780;2022-08-19T00:09:40;26.30;64.50
63277;DHT22;49403;51.046;13.780;2022-08-19T00:10:13;26.20;64.80
63277;DHT22;49403;51.046;13.780;2022-08-19T00:10:44;26.20;64.70
63277;DHT22;49403;51.046;13.780;2022-08-19T00:11:16;27.60;66.10
63277;DHT22;49403;51.046;13.780;2022-08-19T00:11:47;26.10;64.70
63277;DHT22;49403;51.046;13.780;2022-08-19T00:12:18;26.20;65.10
63277;DHT22;49403;51.046;13.780;2022-08-19T00:12:49;27.30;65.90
63277;DHT22;49403;51.046;13.780;2022-08-19T00:13:20;26.10;64.80
63277;DHT22;49403;51.046;13.780;2022-08-19T00:13:51;26.10;65.10
63277;DHT22;49403;51.046;13.780;2022-08-19T00:14:23;26.10;64.90
63277;DHT22;49403;51.046;13.780;2022-08-19T00:14:54;25.50;64.50
63277;DHT22;49403;51.046;13.780;2022-08-19T00:15:25;27.10;65.90
63277;DHT22;49403;51.046;13.780;2022-08-19T00:15:57;26.10;65.20
63277;DHT22;49403;51.046;13.780;2022-08-19T00:16:29;26.10;65.10
63277;DHT22;49403;51.046;13.780;2022-08-19T00:17:00;26.10;65.20
63277;DHT22;49403;51.046;13.780;2022-08-19T00:17:31;26.00;65.30
63277;DHT22;49403;51.046;13.780;2022-08-19T00:18:02;26.10;65.40
63277;DHT22;49403;51.046;13.780;2022-08-19T00:18:34;26.10;65.50
63277;DHT22;49403;51.046;13.780;2022-08-19T00:19:05;26.10;65.50
63277;DHT22;49403;51.046;13.780;2022-08-19T00:19:36;26.10;65.60
63277;DHT22;49403;51.046;13.780;2022-08-19T00:20:09;26.00;65.20
63277;DHT22;49403;51.046;13.780;2022-08-19T00:20:41;26.10;65.30
63277;DHT22;49403;51.046;13.780;2022-08-19T00:21:12;26.10;65.50
63277;DHT22;49403;51.046;13.780;2022-08-19T00:21:43;26.00;65.20
63277;DHT22;49403;51.046;13.780;2022-08-19T00:22:14;26.10;65.30
63277;DHT22;49403;51.046;13.780;2022-08-19T00:22:48;26.50;65.80
63277;DHT22;49403;51.046;13.780;2022-08-19T00:23:19;26.00;65.30
63277;DHT22;49403;51.046;13.780;2022-08-19T00:23:50;26.00;65.60
63277;DHT22;49403;51.046;13.780;2022-08-19T00:24:21;26.00;65.60
63277;DHT22;49403;51.046;13.780;2022-08-19T00:24:53;26.00;65.50
63277;DHT22;49403;51.046;13.780;2022-08-19T00:25:23;27.20;66.80
63277;DHT22;49403;51.046;13.780;2022-08-19T00:25:54;25.90;65.70
63277;DHT22;49403;51.046;13.780;2022-08-19T00:26:27;25.90;65.80
63277;DHT22;49403;51.046;13.780;2022-08-19T00:26:58;25.90;65.70
63277;DHT22;49403;51.046;13.780;2022-08-19T00:27:29;25.90;66.00
63277;DHT22;49403;51.046;13.780;2022-08-19T00:28:00;25.90;66.00
63277;DHT22;49403;51.046;13.780;2022-08-19T00:28:31;25.90;66.30
63277;DHT22;49403;51.046;13.780;2022-08-19T00:29:05;24.80;65.20
63277;DHT22;49403;51.046;13.780;2022-08-19T00:29:36;25.90;66.10
63277;DHT22;49403;51.046;13.780;2022-08-19T00:30:07;26.90;67.40
63277;DHT22;49403;51.046;13.780;2022-08-19T00:30:40;25.80;66.30
63277;DHT22;49403;51.046;13.780;2022-08-19T00:31:11;25.30;66.30
63277;DHT22;49403;51.046;13.780;2022-08-19T00:31:42;25.70;66.70
63277;DHT22;49403;51.046;13.780;2022-08-19T00:32:14;25.80;66.60
63277;DHT22;49403;51.046;13.780;2022-08-19T00:32:45;25.70;66.80
63277;DHT22;49403;51.046;13.780;2022-08-19T00:33:15;25.80;66.80
63277;DHT22;49403;51.046;13.780;2022-08-19T00:33:47;25.70;66.80
63277;DHT22;49403;51.046;13.780;2022-08-19T00:34:20;25.70;66.80
63277;DHT22;49403;51.046;13.780;2022-08-19T00:34:52;25.60;66.80
63277;DHT22;49403;51.046;13.780;2022-08-19T00:35:24;25.70;67.10
63277;DHT22;49403;51.046;13.780;2022-08-19T00:35:58;25.70;67.00
63277;DHT22;49403;51.046;13.780;2022-08-19T00:36:29;25.60;66.90
63277;DHT22;49403;51.046;13.780;2022-08-19T00:37:00;26.60;67.70
63277;DHT22;49403;51.046;13.780;2022-08-19T00:37:31;25.70;67.20
63277;DHT22;49403;51.046;13.780;2022-08-19T00:38:03;25.70;67.10
63277;DHT22;49403;51.046;13.780;2022-08-19T00:38:38;25.50;66.80
63277;DHT22;49403;51.046;13.780;2022-08-19T00:39:11;25.70;67.00
63277;DHT22;49403;51.046;13.780;2022-08-19T00:39:43;26.90;68.00
63277;DHT22;49403;51.046;13.780;2022-08-19T00:40:14;25.70;67.30
63277;DHT22;49403;51.046;13.780;2022-08-19T00:40:46;25.70;67.10
63277;DHT22;49403;51.046;13.780;2022-08-19T00:41:19;25.70;67.30
63277;DHT22;49403;51.046;13.780;2022-08-19T00:41:51;25.70;67.10
63277;DHT22;49403;51.046;13.780;2022-08-19T00:42:22;25.70;67.30
63277;DHT22;49403;51.046;13.780;2022-08-19T00:42:53;26.90;68.10
63277;DHT22;49403;51.046;13.780;2022-08-19T00:43:26;26.00;67.60
63277;DHT22;49403;51.046;13.780;2022-08-19T00:44:08;24.90;66.50
63277;DHT22;49403;51.046;13.780;2022-08-19T00:44:39;25.70;67.00
63277;DHT22;49403;51.046;13.780;2022-08-19T00:45:18;25.70;67.30
63277;DHT22;49403;51.046;13.780;2022-08-19T00:45:50;25.70;67.30
63277;DHT22;49403;51.046;13.780;2022-08-19T00:46:22;25.60;67.60
63277;DHT22;49403;51.046;13.780;2022-08-19T00:46:54;25.60;67.70
63277;DHT22;49403;51.046;13.780;2022-08-19T00:47:25;25.70;67.70
63277;DHT22;49403;51.046;13.780;2022-08-19T00:47:56;25.60;67.90
63277;DHT22;49403;51.046;13.780;2022-08-19T00:48:27;25.60;68.00
63277;DHT22;49403;51.046;13.780;2022-08-19T00:48:59;25.60;68.10
63277;DHT22;49403;51.046;13.780;2022-08-19T00:49:50;25.60;67.70
63277;DHT22;49403;51.046;13.780;2022-08-19T00:50:22;25.60;67.70
63277;DHT22;49403;51.046;13.780;2022-08-19T00:50:54;25.50;67.80
63277;DHT22;49403;51.046;13.780;2022-08-19T00:51:27;25.50;68.10
63277;DHT22;49403;51.046;13.780;2022-08-19T00:52:06;25.50;68.10
63277;DHT22;49403;51.046;13.780;2022-08-19T00:52:42;24.80;67.60
63277;DHT22;49403;51.046;13.780;2022-08-19T00:53:18;25.40;68.40
63277;DHT22;49403;51.046;13.780;2022-08-19T00:53:50;25.30;68.60
63277;DHT22;49403;51.046;13.780;2022-08-19T00:54:22;25.30;68.90
63277;DHT22;49403;51.046;13.780;2022-08-19T00:54:53;25.30;68.90
63277;DHT22;49403;51.046;13.780;2022-08-19T00:55:26;26.40;70.10
63277;DHT22;49403;51.046;13.780;2022-08-19T00:56:01;25.30;69.10
63277;DHT22;49403;51.046;13.780;2022-08-19T00:56:33;25.80;69.60
63277;DHT22;49403;51.046;13.780;2022-08-19T00:57:08;25.10;69.30
63277;DHT22;49403;51.046;13.780;2022-08-19T00:57:42;25.20;69.30
63277;DHT22;49403;51.046;13.780;2022-08-19T00:58:17;25.20;69.50
63277;DHT22;49403;51.046;13.780;2022-08-19T00:58:50;25.20;69.60
63277;DHT22;49403;51.046;13.780;2022-08-19T00:59:21;25.10;69.80
63277;DHT22;49403;51.046;13.780;2022-08-19T00:59:54;25.20;69.90
63277;DHT22;49403;51.046;13.780;2022-08-19T01:00:27;25.20;69.80
63277;DHT22;49403;51.046;13.780;2022-08-19T01:00:58;23.90;68.60
63277;DHT22;49403;51.046;13.780;2022-08-19T01:01:29;25.20;70.70
63277;DHT22;49403;51.046;13.780;2022-08-19T01:02:00;25.20;70.10
63277;DHT22;49403;51.046;13.780;2022-08-19T01:02:32;25.20;69.80
63277;DHT22;49403;51.046;13.780;2022-08-19T01:03:09;25.20;69.90
63277;DHT22;49403;51.046;13.780;2022-08-19T01:03:40;26.50;70.60
63277;DHT22;49403;51.046;13.780;2022-08-19T01:04:12;25.30;70.10
63277;DHT22;49403;51.046;13.780;2022-08-19T01:04:43;25.30;69.80
63277;DHT22;49403;51.046;13.780;2022-08-19T01:05:19;25.20;70.00
63277;DHT22;49403;51.046;13.780;2022-08-19T01:05:54;25.30;69.70
63277;DHT22;49403;51.046;13.780;2022-08-19T01:06:26;25.30;69.60
63277;DHT22;49403;51.046;13.780;2022-08-19T01:06:57;25.40;69.60
63277;DHT22;49403;51.046;13.780;2022-08-19T01:07:28;25.30;69.60
63277;DHT22;49403;51.046;13.780;2022-08-19T01:08:02;25.30;69.60
63277;DHT22;49403;51.046;13.780;2022-08-19T01:08:34;25.40;69.60
63277;DHT22;49403;51.046;13.780;2022-08-19T01:09:05;25.30;69.70
63277;DHT22;49403;51.046;13.780;2022-08-19T01:09:36;25.40;70.00
63277;DHT22;49403;51.046;13.780;2022-08-19T01:10:10;25.30;69.90
63277;DHT22;49403;51.046;13.780;2022-08-19T01:10:45;25.30;69.80
63277;DHT22;49403;51.046;13.780;2022-08-19T01:11:17;25.10;69.80
63277;DHT22;49403;51.046;13.780;2022-08-19T01:11:48;25.30;70.20
63277;DHT22;49403;51.046;13.780;2022-08-19T01:12:20;25.30;70.10
63277;DHT22;49403;51.046;13.780;2022-08-19T01:12:52;25.30;70.10
63277;DHT22;49403;51.046;13.780;2022-08-19T01:13:29;25.80;70.40
63277;DHT22;49403;51.046;13.780;2022-08-19T01:14:01;25.40;70.20
63277;DHT22;49403;51.046;13.780;2022-08-19T01:14:32;25.40;70.10
63277;DHT22;49403;51.046;13.780;2022-08-19T01:15:06;25.40;70.00
63277;DHT22;49403;51.046;13.780;2022-08-19T01:15:45;25.10;69.70
63277;DHT22;49403;51.046;13.780;2022-08-19T01:16:21;25.50;69.90
63277;DHT22;49403;51.046;13.780;2022-08-19T01:16:53;25.40;69.90
63277;DHT22;49403;51.046;13.780;2022-08-19T01:17:26;25.90;70.30
63277;DHT22;49403;51.046;13.780;2022-08-19T01:18:02;24.60;69.20
63277;DHT22;49403;51.046;13.780;2022-08-19T01:18:38;25.20;69.70
63277;DHT22;49403;51.046;13.780;2022-08-19T01:19:18;25.40;69.90
63277;DHT22;49403;51.046;13.780;2022-08-19T01:19:53;25.40;69.90
63277;DHT22;49403;51.046;13.780;2022-08-19T01:20:24;25.90;70.60
63277;DHT22;49403;51.046;13.780;2022-08-19T01:21:02;25.30;70.20
63277;DHT22;49403;51.046;13.780;2022-08-19T01:21:42;25.40;70.10
63277;DHT22;49403;51.046;13.780;2022-08-19T01:22:57;25.30;70.10
63277;DHT22;49403;51.046;13.780;2022-08-19T01:23:28;26.20;71.10
63277;DHT22;49403;51.046;13.780;2022-08-19T01:24:13;25.20;70.80
63277;DHT22;49403;51.046;13.780;2022-08-19T01:24:44;25.20;70.80
63277;DHT22;49403;51.046;13.780;2022-08-19T01:25:17;25.20;70.70
63277;DHT22;49403;51.046;13.780;2022-08-19T01:25:51;25.20;70.70
63277;DHT22;49403;51.046;13.780;2022-08-19T01:26:24;25.50;71.00
63277;DHT22;49403;51.046;13.780;2022-08-19T01:26:55;25.20;70.80
63277;DHT22;49403;51.046;13.780;2022-08-19T01:27:26;25.20;71.80
63277;DHT22;49403;51.046;13.780;2022-08-19T01:27:57;25.30;71.20
63277;DHT22;49403;51.046;13.780;2022-08-19T01:28:28;25.30;71.00
63277;DHT22;49403;51.046;13.780;2022-08-19T01:28:59;25.30;71.00
63277;DHT22;49403;51.046;13.780;2022-08-19T01:29:32;25.30;70.60
63277;DHT22;49403;51.046;13.780;2022-08-19T01:30:04;25.20;70.60
63277;DHT22;49403;51.046;13.780;2022-08-19T01:30:36;25.40;70.30
63277;DHT22;49403;51.046;13.780;2022-08-19T01:31:10;25.80;70.70
63277;DHT22;49403;51.046;13.780;2022-08-19T01:31:42;25.50;70.10
63277;DHT22;49403;51.046;13.780;2022-08-19T01:32:15;25.50;70.40
63277;DHT22;49403;51.046;13.780;2022-08-19T01:32:46;26.60;70.90
63277;DHT22;49403;51.046;13.780;2022-08-19T01:33:17;25.40;70.30
63277;DHT22;49403;51.046;13.780;2022-08-19T01:33:50;25.50;70.40
63277;DHT22;49403;51.046;13.780;2022-08-19T01:34:21;25.40;70.10
63277;DHT22;49403;51.046;13.780;2022-08-19T01:34:52;25.50;70.40
63277;DHT22;49403;51.046;13.780;2022-08-19T01:35:27;25.40;70.40
63277;DHT22;49403;51.046;13.780;2022-08-19T01:36:11;25.50;70.20
63277;DHT22;49403;51.046;13.780;2022-08-19T01:36:45;25.40;70.20
63277;DHT22;49403;51.046;13.780;2022-08-19T01:37:17;25.40;70.40
63277;DHT22;49403;51.046;13.780;2022-08-19T01:37:57;25.40;70.80
63277;DHT22;49403;51.046;13.780;2022-08-19T01:38:28;25.50;70.40
63277;DHT22;49403;51.046;13.780;2022-08-19T01:39:03;25.30;70.60
63277;DHT22;49403;51.046;13.780;2022-08-19T01:39:34;26.50;71.40
63277;DHT22;49403;51.046;13.780;2022-08-19T01:40:06;26.10;71.40
63277;DHT22;49403;51.046;13.780;2022-08-19T01:40:39;25.40;70.40
63277;DHT22;49403;51.046;13.780;2022-08-19T01:41:11;25.00;70.20
63277;DHT22;49403;51.046;13.780;2022-08-19T01:41:43;25.50;70.40
63277;DHT22;49403;51.046;13.780;2022-08-19T01:42:13;25.40;70.30
63277;DHT22;49403;51.046;13.780;2022-08-19T01:42:44;24.60;69.80
63277;DHT22;49403;51.046;13.780;2022-08-19T01:43:15;25.40;70.40
63277;DHT22;49403;51.046;13.780;2022-08-19T01:43:46;25.40;70.20
63277;DHT22;49403;51.046;13.780;2022-08-19T01:44:17;25.50;70.50
63277;DHT22;49403;51.046;13.780;2022-08-19T01:44:50;25.40;70.60
63277;DHT22;49403;51.046;13.780;2022-08-19T01:45:23;25.40;70.70
63277;DHT22;49403;51.046;13.780;2022-08-19T01:45:54;25.30;70.50
63277;DHT22;49403;51.046;13.780;2022-08-19T01:46:25;25.40;70.80
63277;DHT22;49403;51.046;13.780;2022-08-19T01:46:56;25.30;70.90
63277;DHT22;49403;51.046;13.780;2022-08-19T01:47:27;25.40;71.10
63277;DHT22;49403;51.046;13.780;2022-08-19T01:47:59;25.40;71.00
63277;DHT22;49403;51.046;13.780;2022-08-19T01:48:40;25.40;70.70
63277;DHT22;49403;51.046;13.780;2022-08-19T01:49:12;25.50;70.70
63277;DHT22;49403;51.046;13.780;2022-08-19T01:49:43;25.70;71.30
63277;DHT22;49403;51.046;13.780;2022-08-19T01:50:14;25.40;70.90
63277;DHT22;49403;51.046;13.780;2022-08-19T01:50:45;25.50;70.80
63277;DHT22;49403;51.046;13.780;2022-08-19T01:51:15;25.40;70.70
63277;DHT22;49403;51.046;13.780;2022-08-19T01:51:47;25.50;70.70
63277;DHT22;49403;51.046;13.780;2022-08-19T01:52:19;25.50;70.50
63277;DHT22;49403;51.046;13.780;2022-08-19T01:52:50;25.50;70.50
63277;DHT22;49403;51.046;13.780;2022-08-19T01:53:21;25.50;70.80
63277;DHT22;49403;51.046;13.780;2022-08-19T01:53:52;26.30;71.40
63277;DHT22;49403;51.046;13.780;2022-08-19T01:54:23;25.50;70.90
63277;DHT22;49403;51.046;13.780;2022-08-19T01:54:55;24.50;69.90
63277;DHT22;49403;51.046;13.780;2022-08-19T01:55:26;26.90;72.10
63277;DHT22;49403;51.046;13.780;2022-08-19T01:55:57;25.40;70.80
63277;DHT22;49403;51.046;13.780;2022-08-19T01:56:28;25.40;70.80
63277;DHT22;49403;51.046;13.780;2022-08-19T01:57:05;25.40;71.20
63277;DHT22;49403;51.046;13.780;2022-08-19T01:57:37;25.40;71.00
63277;DHT22;49403;51.046;13.780;2022-08-19T01:58:17;25.30;71.00
63277;DHT22;49403;51.046;13.780;2022-08-19T01:58:58;25.40;71.10
63277;DHT22;49403;51.046;13.780;2022-08-19T01:59:31;25.30;71.20
63277;DHT22;49403;51.046;13.780;2022-08-19T02:00:05;25.30;71.40
63277;DHT22;49403;51.046;13.780;2022-08-19T02:00:36;25.30;71.50
63277;DHT22;49403;51.046;13.780;2022-08-19T02:01:08;25.30;71.70
63277;DHT22;49403;51.046;13.780;2022-08-19T02:01:39;25.50;71.60
63277;DHT22;49403;51.046;13.780;2022-08-19T02:02:10;25.30;71.60
63277;DHT22;49403;51.046;13.780;2022-08-19T02:02:42;25.30;71.80
63277;DHT22;49403;51.046;13.780;2022-08-19T02:03:13;25.30;71.60
63277;DHT22;49403;51.046;13.780;2022-08-19T02:03:44;25.30;72.10
63277;DHT22;49403;51.046;13.780;2022-08-19T02:04:15;23.90;70.80
63277;DHT22;49403;51.046;13.780;2022-08-19T02:04:46;25.20;71.80
63277;DHT22;49403;51.046;13.780;2022-08-19T02:05:17;25.60;72.30
63277;DHT22;49403;51.046;13.780;2022-08-19T02:06:02;25.30;71.90
63277;DHT22;49403;51.046;13.780;2022-08-19T02:06:33;25.30;71.90
63277;DHT22;49403;51.046;13.780;2022-08-19T02:07:04;25.20;72.30
63277;DHT22;49403;51.046;13.780;2022-08-19T02:07:36;25.20;72.00
63277;DHT22;49403;51.046;13.780;2022-08-19T02:08:08;25.30;72.10
63277;DHT22;49403;51.046;13.780;2022-08-19T02:08:39;26.70;73.20
63277;DHT22;49403;51.046;13.780;2022-08-19T02:09:10;25.30;72.30
63277;DHT22;49403;51.046;13.780;2022-08-19T02:09:41;25.30;72.30
63277;DHT22;49403;51.046;13.780;2022-08-19T02:10:16;25.30;73.00
63277;DHT22;49403;51.046;13.780;2022-08-19T02:10:47;25.30;71.90
63277;DHT22;49403;51.046;13.780;2022-08-19T02:11:24;25.30;72.10
63277;DHT22;49403;51.046;13.780;2022-08-19T02:11:56;26.70;72.90
63277;DHT22;49403;51.046;13.780;2022-08-19T02:12:27;25.30;71.80
63277;DHT22;49403;51.046;13.780;2022-08-19T02:12:59;25.40;72.30
63277;DHT22;49403;51.046;13.780;2022-08-19T02:13:31;25.40;72.10
63277;DHT22;49403;51.046;13.780;2022-08-19T02:14:04;25.30;71.80
63277;DHT22;49403;51.046;13.780;2022-08-19T02:14:36;25.50;71.90
63277;DHT22;49403;51.046;13.780;2022-08-19T02:15:07;25.40;71.80
63277;DHT22;49403;51.046;13.780;2022-08-19T02:15:39;25.40;71.80
63277;DHT22;49403;51.046;13.780;2022-08-19T02:16:10;25.50;71.80
63277;DHT22;49403;51.046;13.780;2022-08-19T02:16:40;25.50;71.90
63277;DHT22;49403;51.046;13.780;2022-08-19T02:17:11;26.80;72.80
63277;DHT22;49403;51.046;13.780;2022-08-19T02:17:42;25.60;71.70
63277;DHT22;49403;51.046;13.780;2022-08-19T02:18:13;25.10;71.10
63277;DHT22;49403;51.046;13.780;2022-08-19T02:18:45;25.70;71.40
63277;DHT22;49403;51.046;13.780;2022-08-19T02:19:16;25.70;71.00
63277;DHT22;49403;51.046;13.780;2022-08-19T02:19:47;24.80;70.40
63277;DHT22;49403;51.046;13.780;2022-08-19T02:20:19;25.90;71.00
63277;DHT22;49403;51.046;13.780;2022-08-19T02:20:50;25.90;70.70
63277;DHT22;49403;51.046;13.780;2022-08-19T02:21:23;26.00;70.70
63277;DHT22;49403;51.046;13.780;2022-08-19T02:21:54;25.60;70.10
63277;DHT22;49403;51.046;13.780;2022-08-19T02:22:25;26.00;70.40
63277;DHT22;49403;51.046;13.780;2022-08-19T02:22:58;27.00;70.90
63277;DHT22;49403;51.046;13.780;2022-08-19T02:23:29;26.10;70.30
63277;DHT22;49403;51.046;13.780;2022-08-19T02:24:02;26.00;70.00
63277;DHT22;49403;51.046;13.780;2022-08-19T02:24:33;26.10;70.00
63277;DHT22;49403;51.046;13.780;2022-08-19T02:25:04;26.00;70.20
63277;DHT22;49403;51.046;13.780;2022-08-19T02:25:36;26.10;70.30
63277;DHT22;49403;51.046;13.780;2022-08-19T02:26:07;26.00;69.80
63277;DHT22;49403;51.046;13.780;2022-08-19T02:26:39;26.10;69.80
63277;DHT22;49403;51.046;13.780;2022-08-19T02:27:10;26.20;70.00
63277;DHT22;49403;51.046;13.780;2022-08-19T02:27:41;26.20;69.90
63277;DHT22;49403;51.046;13.780;2022-08-19T02:28:13;26.40;69.60
63277;DHT22;49403;51.046;13.780;2022-08-19T02:28:44;26.20;69.70
63277;DHT22;49403;51.046;13.780;2022-08-19T02:29:15;26.20;69.40
63277;DHT22;49403;51.046;13.780;2022-08-19T02:29:47;26.10;69.60
63277;DHT22;49403;51.046;13.780;2022-08-19T02:30:19;26.10;69.40
63277;DHT22;49403;51.046;13.780;2022-08-19T02:30:50;26.10;69.80
63277;DHT22;49403;51.046;13.780;2022-08-19T02:31:23;26.10;69.80
63277;DHT22;49403;51.046;13.780;2022-08-19T02:31:55;26.10;69.80
63277;DHT22;49403;51.046;13.780;2022-08-19T02:32:26;26.00;69.90
63277;DHT22;49403;51.046;13.780;2022-08-19T02:32:57;26.00;69.80
63277;DHT22;49403;51.046;13.780;2022-08-19T02:33:28;26.00;69.80
63277;DHT22;49403;51.046;13.780;2022-08-19T02:33:59;26.10;69.70
63277;DHT22;49403;51.046;13.780;2022-08-19T02:34:31;26.10;70.00
63277;DHT22;49403;51.046;13.780;2022-08-19T02:35:02;26.10;69.90
63277;DHT22;49403;51.046;13.780;2022-08-19T02:35:33;27.50;70.90
63277;DHT22;49403;51.046;13.780;2022-08-19T02:36:05;26.20;70.20
63277;DHT22;49403;51.046;13.780;2022-08-19T02:36:36;26.00;69.80
63277;DHT22;49403;51.046;13.780;2022-08-19T02:37:07;26.00;70.10
63277;DHT22;49403;51.046;13.780;2022-08-19T02:38:01;27.40;70.90
63277;DHT22;49403;51.046;13.780;2022-08-19T02:38:51;25.00;69.30
63277;DHT22;49403;51.046;13.780;2022-08-19T02:39:22;25.80;70.40
63277;DHT22;49403;51.046;13.780;2022-08-19T02:39:53;25.90;70.70
63277;DHT22;49403;51.046;13.780;2022-08-19T02:40:24;25.80;70.60
63277;DHT22;49403;51.046;13.780;2022-08-19T02:40:58;25.80;70.60
63277;DHT22;49403;51.046;13.780;2022-08-19T02:41:32;25.80;70.50
63277;DHT22;49403;51.046;13.780;2022-08-19T02:42:03;25.80;70.60
63277;DHT22;49403;51.046;13.780;2022-08-19T02:42:34;25.70;70.70
63277;DHT22;49403;51.046;13.780;2022-08-19T02:43:07;25.80;71.10
63277;DHT22;49403;51.046;13.780;2022-08-19T02:43:38;25.70;70.80
63277;DHT22;49403;51.046;13.780;2022-08-19T02:44:10;26.30;71.50
63277;DHT22;49403;51.046;13.780;2022-08-19T02:44:41;24.40;70.00
63277;DHT22;49403;51.046;13.780;2022-08-19T02:45:13;25.70;71.20
63277;DHT22;49403;51.046;13.780;2022-08-19T02:45:44;25.50;70.90
63277;DHT22;49403;51.046;13.780;2022-08-19T02:46:21;27.00;72.30
63277;DHT22;49403;51.046;13.780;2022-08-19T02:46:52;25.60;71.10
63277;DHT22;49403;51.046;13.780;2022-08-19T02:47:23;27.00;72.50
63277;DHT22;49403;51.046;13.780;2022-08-19T02:47:53;25.70;71.60
63277;DHT22;49403;51.046;13.780;2022-08-19T02:48:25;25.70;71.60
63277;DHT22;49403;51.046;13.780;2022-08-19T02:48:59;25.60;71.50
63277;DHT22;49403;51.046;13.780;2022-08-19T02:49:31;25.40;71.10
63277;DHT22;49403;51.046;13.780;2022-08-19T02:50:03;25.70;71.50
63277;DHT22;49403;51.046;13.780;2022-08-19T02:50:38;25.70;71.40
63277;DHT22;49403;51.046;13.780;2022-08-19T02:51:22;25.60;71.30
63277;DHT22;49403;51.046;13.780;2022-08-19T02:51:53;26.10;71.60
63277;DHT22;49403;51.046;13.780;2022-08-19T02:52:24;25.00;71.30
63277;DHT22;49403;51.046;13.780;2022-08-19T02:52:55;25.60;71.90
63277;DHT22;49403;51.046;13.780;2022-08-19T02:53:28;25.60;71.90
63277;DHT22;49403;51.046;13.780;2022-08-19T02:53:59;25.60;71.90
63277;DHT22;49403;51.046;13.780;2022-08-19T02:54:30;25.60;72.20
63277;DHT22;49403;51.046;13.780;2022-08-19T02:55:01;25.60;72.00
63277;DHT22;49403;51.046;13.780;2022-08-19T02:55:33;25.50;71.70
63277;DHT22;49403;51.046;13.780;2022-08-19T02:56:07;25.60;72.10
63277;DHT22;49403;51.046;13.780;2022-08-19T02:56:40;25.50;72.00
63277;DHT22;49403;51.046;13.780;2022-08-19T02:57:11;25.90;72.10
63277;DHT22;49403;51.046;13.780;2022-08-19T02:57:42;25.80;72.40
63277;DHT22;49403;51.046;13.780;2022-08-19T02:58:14;26.50;73.00
63277;DHT22;49403;51.046;13.780;2022-08-19T02:58:46;25.40;72.10
63277;DHT22;49403;51.046;13.780;2022-08-19T02:59:17;25.50;72.30
63277;DHT22;49403;51.046;13.780;2022-08-19T02:59:47;25.40;72.70
63277;DHT22;49403;51.046;13.780;2022-08-19T03:00:18;25.30;72.70
63277;DHT22;49403;51.046;13.780;2022-08-19T03:00:53;26.40;73.50
63277;DHT22;49403;51.046;13.780;2022-08-19T03:01:27;25.40;72.50
63277;DHT22;49403;51.046;13.780;2022-08-19T03:01:59;25.30;72.50
63277;DHT22;49403;51.046;13.780;2022-08-19T03:02:29;25.40;72.80
63277;DHT22;49403;51.046;13.780;2022-08-19T03:03:01;25.40;72.90
63277;DHT22;49403;51.046;13.780;2022-08-19T03:03:32;25.30;73.00
63277;DHT22;49403;51.046;13.780;2022-08-19T03:04:05;25.30;72.90
63277;DHT22;49403;51.046;13.780;2022-08-19T03:04:36;25.20;72.70
63277;DHT22;49403;51.046;13.780;2022-08-19T03:05:09;25.30;73.00
63277;DHT22;49403;51.046;13.780;2022-08-19T03:05:41;25.40;72.90
63277;DHT22;49403;51.046;13.780;2022-08-19T03:06:15;25.30;72.70
63277;DHT22;49403;51.046;13.780;2022-08-19T03:06:47;25.40;72.80
63277;DHT22;49403;51.046;13.780;2022-08-19T03:07:18;25.40;72.70
63277;DHT22;49403;51.046;13.780;2022-08-19T03:07:49;25.40;73.20
63277;DHT22;49403;51.046;13.780;2022-08-19T03:08:20;25.30;73.00
63277;DHT22;49403;51.046;13.780;2022-08-19T03:08:50;25.40;73.10
63277;DHT22;49403;51.046;13.780;2022-08-19T03:09:21;25.30;73.80
63277;DHT22;49403;51.046;13.780;2022-08-19T03:09:52;25.30;73.00
63277;DHT22;49403;51.046;13.780;2022-08-19T03:10:23;25.40;73.20
63277;DHT22;49403;51.046;13.780;2022-08-19T03:10:54;25.80;73.30
63277;DHT22;49403;51.046;13.780;2022-08-19T03:11:28;25.40;73.10
63277;DHT22;49403;51.046;13.780;2022-08-19T03:11:59;25.40;72.70
63277;DHT22;49403;51.046;13.780;2022-08-19T03:12:30;25.40;73.10
63277;DHT22;49403;51.046;13.780;2022-08-19T03:13:01;25.50;72.80
63277;DHT22;49403;51.046;13.780;2022-08-19T03:13:33;25.50;72.80
63277;DHT22;49403;51.046;13.780;2022-08-19T03:14:06;25.40;73.00
63277;DHT22;49403;51.046;13.780;2022-08-19T03:14:37;25.50;72.80
63277;DHT22;49403;51.046;13.780;2022-08-19T03:15:08;25.50;72.90
63277;DHT22;49403;51.046;13.780;2022-08-19T03:15:41;26.40;73.30
63277;DHT22;49403;51.046;13.780;2022-08-19T03:16:13;26.90;73.80
63277;DHT22;49403;51.046;13.780;2022-08-19T03:16:49;25.50;72.80
63277;DHT22;49403;51.046;13.780;2022-08-19T03:17:20;25.50;72.60
63277;DHT22;49403;51.046;13.780;2022-08-19T03:17:51;25.50;72.80
63277;DHT22;49403;51.046;13.780;2022-08-19T03:18:22;25.50;72.80
63277;DHT22;49403;51.046;13.780;2022-08-19T03:18:55;26.30;73.30
63277;DHT22;49403;51.046;13.780;2022-08-19T03:19:26;25.50;72.50
63277;DHT22;49403;51.046;13.780;2022-08-19T03:19:58;25.50;72.40
63277;DHT22;49403;51.046;13.780;2022-08-19T03:20:28;25.50;72.70
63277;DHT22;49403;51.046;13.780;2022-08-19T03:20:59;25.50;72.70
63277;DHT22;49403;51.046;13.780;2022-08-19T03:21:32;26.90;74.00
63277;DHT22;49403;51.046;13.780;2022-08-19T03:22:04;25.50;72.50